Time;durP1;ratioP1;P1;durP2;ratioP2;P2;SDS_P1;SDS_P2;PMS_P1;PMS_P2;Temp;Humidity;BMP_temperature;BMP_pressure;BME280_temperature;BME280_humidity;BME280_pressure;Samples;Min_cycle;Max_cycle;Signal;HPM_P1;HPM_P2
2021/06/22 00:00:34;;;;;;;;;;;19.60;74.10;;;;;;4364271;32;20013;-77
2021/06/22 00:03:02;;;;;;;;;;;19.70;74.20;;;;;;4377703;32;20016;-77
2021/06/22 00:05:31;;;;;;;;;;;19.60;74.10;;;;;;4378127;32;20071;-79
2021/06/22 00:07:58;;;;;;;;;;;19.60;74.10;;;;;;4377377;32;20060;-77
2021/06/22 00:10:29;;;;;;;;;;;19.60;74.10;;;;;;4378350;32;20020;-77
2021/06/22 00:12:57;;;;;;;;;;;19.60;74.20;;;;;;4377524;32;22004;-77
2021/06/22 00:15:26;;;;;;;;;;;19.60;74.20;;;;;;4377411;32;20046;-77
2021/06/22 00:17:54;;;;;;;;;;;19.60;74.20;;;;;;4377636;32;20015;-77
2021/06/22 00:20:24;;;;;;;;;;;19.60;74.20;;;;;;4376214;32;22884;-76
2021/06/22 00:22:54;;;;;;;;;;;19.60;74.30;;;;;;4377535;32;23797;-78
2021/06/22 00:25:22;;;;;;;;;;;19.50;74.30;;;;;;4377586;32;20128;-77
2021/06/22 00:27:50;;;;;;;;;;;19.50;74.30;;;;;;4376777;32;25363;-77
2021/06/22 00:30:18;;;;;;;;;;;19.50;74.30;;;;;;4377611;32;20695;-77
2021/06/22 00:32:46;;;;;;;;;;;19.50;74.20;;;;;;4376297;32;22096;-77
2021/06/22 00:35:14;;;;;;;;;;;19.50;74.20;;;;;;4377144;32;20008;-77
2021/06/22 00:37:44;;;;;;;;;;;19.50;74.20;;;;;;4376957;32;20004;-77
2021/06/22 00:40:13;;;;;;;;;;;19.50;74.20;;;;;;4375581;32;43763;-77
2021/06/22 00:42:41;;;;;;;;;;;19.50;74.20;;;;;;4375297;32;43614;-77
2021/06/22 00:45:08;;;;;;;;;;;19.50;74.20;;;;;;4374906;32;42614;-79
2021/06/22 00:47:35;;;;;;;;;;;19.50;74.10;;;;;;4376013;32;44009;-77
2021/06/22 00:50:03;;;;;;;;;;;19.50;74.20;;;;;;4375954;32;44631;-77
2021/06/22 00:52:30;;;;;;;;;;;19.50;74.20;;;;;;4376709;32;20385;-77
2021/06/22 00:54:57;;;;;;;;;;;19.40;74.10;;;;;;4376024;32;20082;-77
2021/06/22 00:57:25;;;;;;;;;;;19.40;74.20;;;;;;4374971;32;44321;-78
2021/06/22 00:59:52;;;;;;;;;;;19.40;74.20;;;;;;4376646;32;44719;-77
2021/06/22 01:02:19;;;;;;;;;;;19.40;74.20;;;;;;4374689;32;43398;-77
2021/06/22 01:04:47;;;;;;;;;;;19.40;75.00;;;;;;4376087;32;43438;-79
2021/06/22 01:07:16;;;;;;;;;;;19.30;74.10;;;;;;4376017;32;43543;-77
2021/06/22 01:09:46;;;;;;;;;;;19.30;74.20;;;;;;4375871;32;43001;-77
2021/06/22 01:12:14;;;;;;;;;;;19.30;74.20;;;;;;4375526;32;43471;-77
2021/06/22 01:14:41;;;;;;;;;;;19.30;74.10;;;;;;4375567;32;43659;-76
2021/06/22 01:17:09;;;;;;;;;;;19.30;74.10;;;;;;4376233;32;39088;-77
2021/06/22 01:19:36;;;;;;;;;;;19.30;74.10;;;;;;4376046;32;43440;-76
2021/06/22 01:22:06;;;;;;;;;;;19.30;74.10;;;;;;4375513;32;44454;-77
2021/06/22 01:24:33;;;;;;;;;;;19.30;74.10;;;;;;4375939;32;44852;-77
2021/06/22 01:27:01;;;;;;;;;;;19.30;74.10;;;;;;4375956;32;41862;-78
2021/06/22 01:29:28;;;;;;;;;;;19.30;74.10;;;;;;4375661;32;43672;-77
2021/06/22 01:31:57;;;;;;;;;;;19.30;74.10;;;;;;4375619;32;43806;-77
2021/06/22 01:34:24;;;;;;;;;;;19.30;74.20;;;;;;4374458;32;43937;-77
2021/06/22 01:36:53;;;;;;;;;;;19.20;74.00;;;;;;4375774;32;41464;-77
2021/06/22 01:39:20;;;;;;;;;;;19.20;74.10;;;;;;4375580;32;20042;-77
2021/06/22 01:41:48;;;;;;;;;;;19.20;74.10;;;;;;4375566;32;43472;-76
2021/06/22 01:44:15;;;;;;;;;;;19.20;74.20;;;;;;4375391;32;43740;-77
2021/06/22 01:46:42;;;;;;;;;;;19.20;74.10;;;;;;4363242;32;19993;-77
2021/06/22 01:49:09;;;;;;;;;;;19.20;74.20;;;;;;4374578;32;44728;-77
2021/06/22 01:51:36;;;;;;;;;;;19.20;74.20;;;;;;4375527;32;43667;-77
2021/06/22 01:54:03;;;;;;;;;;;19.20;74.20;;;;;;4373940;32;43756;-77
2021/06/22 01:56:32;;;;;;;;;;;19.20;74.30;;;;;;4375578;32;20000;-76
2021/06/22 01:59:00;;;;;;;;;;;19.20;74.40;;;;;;4375558;32;43760;-77
2021/06/22 02:01:27;;;;;;;;;;;19.20;74.30;;;;;;4375228;32;44405;-77
2021/06/22 02:03:55;;;;;;;;;;;19.20;74.40;;;;;;4374471;32;41643;-77
2021/06/22 02:06:22;;;;;;;;;;;19.20;74.40;;;;;;4375818;32;43262;-76
2021/06/22 02:08:49;;;;;;;;;;;19.10;74.40;;;;;;4375383;32;44002;-77
2021/06/22 02:11:16;;;;;;;;;;;19.10;74.50;;;;;;4375198;32;43970;-77
2021/06/22 02:13:46;;;;;;;;;;;19.10;74.50;;;;;;4374471;32;37923;-76
2021/06/22 02:16:13;;;;;;;;;;;19.10;74.60;;;;;;4375388;32;35730;-77
2021/06/22 02:18:40;;;;;;;;;;;19.10;74.60;;;;;;4375220;32;44500;-77
2021/06/22 02:21:07;;;;;;;;;;;19.10;74.60;;;;;;4376122;32;20064;-77
2021/06/22 02:23:35;;;;;;;;;;;19.10;74.60;;;;;;4375535;32;44697;-76
2021/06/22 02:26:02;;;;;;;;;;;19.10;74.70;;;;;;4374721;32;44940;-77
2021/06/22 02:28:29;;;;;;;;;;;19.10;74.70;;;;;;4374266;32;44383;-77
2021/06/22 02:30:57;;;;;;;;;;;19.10;75.40;;;;;;4374707;32;44605;-77
2021/06/22 02:33:25;;;;;;;;;;;19.00;74.60;;;;;;4375125;32;44636;-77
2021/06/22 02:36:12;;;;;;;;;;;19.10;74.60;;;;;;4375340;32;20015;-77
2021/06/22 02:38:58;;;;;;;;;;;19.00;74.60;;;;;;4376108;32;20475;-78
2021/06/22 02:41:43;;;;;;;;;;;19.00;74.60;;;;;;4376441;32;20006;-77
2021/06/22 02:44:30;;;;;;;;;;;19.00;74.50;;;;;;4376132;32;20071;-79
2021/06/22 02:47:00;;;;;;;;;;;19.00;74.50;;;;;;4374859;32;43580;-78
2021/06/22 02:49:51;;;;;;;;;;;19.00;74.50;;;;;;4375468;32;20065;-78
2021/06/22 02:52:38;;;;;;;;;;;19.00;74.50;;;;;;4375312;32;20007;-79
2021/06/22 02:55:06;;;;;;;;;;;18.90;74.50;;;;;;4374971;32;44501;-76
2021/06/22 02:57:33;;;;;;;;;;;18.90;74.50;;;;;;4375004;32;44631;-76
2021/06/22 03:00:00;;;;;;;;;;;18.90;74.50;;;;;;4374992;32;43708;-77
2021/06/22 03:02:27;;;;;;;;;;;18.90;74.50;;;;;;4374553;32;20064;-77
2021/06/22 03:04:54;;;;;;;;;;;18.90;74.40;;;;;;4375136;32;44698;-77
2021/06/22 03:07:21;;;;;;;;;;;18.90;74.40;;;;;;4373735;32;44489;-76
2021/06/22 03:09:51;;;;;;;;;;;18.90;74.50;;;;;;4374700;32;44442;-77
2021/06/22 03:12:18;;;;;;;;;;;18.90;74.40;;;;;;4374882;32;43446;-77
2021/06/22 03:14:45;;;;;;;;;;;18.80;74.30;;;;;;4374928;32;41597;-76
2021/06/22 03:17:13;;;;;;;;;;;18.80;74.40;;;;;;4373286;32;43536;-78
2021/06/22 03:19:40;;;;;;;;;;;18.80;74.40;;;;;;4373382;32;44932;-77
2021/06/22 03:22:07;;;;;;;;;;;18.80;74.30;;;;;;4374376;32;44565;-77
2021/06/22 03:24:35;;;;;;;;;;;18.80;74.20;;;;;;4374371;32;44590;-76
2021/06/22 03:27:02;;;;;;;;;;;18.80;74.20;;;;;;4374744;32;43343;-77
2021/06/22 03:29:29;;;;;;;;;;;18.80;74.30;;;;;;4374688;32;44325;-78
2021/06/22 03:31:56;;;;;;;;;;;18.80;74.30;;;;;;4374275;32;42747;-77
2021/06/22 03:34:23;;;;;;;;;;;18.80;74.20;;;;;;4361281;32;42815;-77
2021/06/22 03:36:50;;;;;;;;;;;18.80;74.20;;;;;;4376041;32;42370;-77
2021/06/22 03:39:18;;;;;;;;;;;18.70;74.10;;;;;;4376591;32;39651;-78
2021/06/22 03:41:45;;;;;;;;;;;18.70;74.10;;;;;;4376546;32;37014;-77
2021/06/22 03:44:12;;;;;;;;;;;18.70;74.10;;;;;;4377364;32;43952;-77
2021/06/22 03:46:42;;;;;;;;;;;18.70;74.00;;;;;;4378219;32;20060;-77
2021/06/22 03:49:10;;;;;;;;;;;18.70;74.00;;;;;;4376803;32;44631;-77
2021/06/22 03:51:37;;;;;;;;;;;18.70;74.00;;;;;;4375777;32;43372;-77
2021/06/22 03:54:04;;;;;;;;;;;18.70;74.00;;;;;;4376774;32;43982;-76
2021/06/22 03:56:32;;;;;;;;;;;18.60;73.90;;;;;;4377096;32;43282;-76
2021/06/22 03:58:59;;;;;;;;;;;18.60;73.90;;;;;;4376606;32;44015;-78
2021/06/22 04:01:26;;;;;;;;;;;18.60;73.80;;;;;;4377358;32;38905;-76
2021/06/22 04:03:53;;;;;;;;;;;18.60;73.70;;;;;;4377001;32;43002;-77
2021/06/22 04:06:20;;;;;;;;;;;18.60;73.70;;;;;;4376967;32;42728;-76
2021/06/22 04:08:47;;;;;;;;;;;18.60;73.70;;;;;;4376892;32;44923;-76
2021/06/22 04:11:14;;;;;;;;;;;18.60;73.60;;;;;;4375680;32;36888;-77
2021/06/22 04:13:41;;;;;;;;;;;18.60;73.60;;;;;;4376508;32;44083;-77
2021/06/22 04:16:09;;;;;;;;;;;18.60;73.60;;;;;;4376873;32;43576;-76
2021/06/22 04:18:36;;;;;;;;;;;18.60;73.60;;;;;;4376698;32;35040;-76
2021/06/22 04:21:03;;;;;;;;;;;18.60;73.60;;;;;;4376899;32;44409;-76
2021/06/22 04:23:30;;;;;;;;;;;18.60;73.50;;;;;;4376997;32;20397;-77
2021/06/22 04:25:58;;;;;;;;;;;18.60;73.50;;;;;;4375657;32;43348;-77
2021/06/22 04:28:25;;;;;;;;;;;18.60;73.60;;;;;;4375666;32;44017;-77
2021/06/22 04:30:52;;;;;;;;;;;18.50;73.50;;;;;;4376478;32;44298;-76
2021/06/22 04:33:19;;;;;;;;;;;18.60;73.60;;;;;;4376721;32;44479;-76
2021/06/22 04:35:46;;;;;;;;;;;18.50;73.50;;;;;;4375208;32;40942;-77
2021/06/22 04:38:14;;;;;;;;;;;18.50;73.50;;;;;;4376510;32;43666;-76
2021/06/22 04:40:41;;;;;;;;;;;18.50;73.50;;;;;;4376612;32;44834;-76
2021/06/22 04:43:08;;;;;;;;;;;18.50;73.50;;;;;;4375304;32;44724;-77
2021/06/22 04:45:36;;;;;;;;;;;18.50;73.50;;;;;;4376693;32;43222;-76
2021/06/22 04:48:04;;;;;;;;;;;18.50;73.70;;;;;;4374828;32;43660;-76
2021/06/22 04:50:34;;;;;;;;;;;18.50;73.70;;;;;;4376579;32;44709;-77
2021/06/22 04:53:04;;;;;;;;;;;18.50;73.80;;;;;;4376519;32;39573;-76
2021/06/22 04:55:31;;;;;;;;;;;18.40;73.90;;;;;;4377605;32;20071;-77
2021/06/22 04:57:59;;;;;;;;;;;18.40;73.80;;;;;;4375865;32;44928;-76
2021/06/22 05:00:29;;;;;;;;;;;18.40;73.80;;;;;;4376456;32;44413;-77
2021/06/22 05:02:56;;;;;;;;;;;18.40;74.10;;;;;;4374545;32;43938;-76
2021/06/22 05:05:25;;;;;;;;;;;18.40;74.00;;;;;;4376483;32;44526;-75
2021/06/22 05:07:53;;;;;;;;;;;18.40;74.00;;;;;;4377381;32;20012;-76
2021/06/22 05:10:20;;;;;;;;;;;18.30;74.00;;;;;;4376447;32;43276;-76
2021/06/22 05:12:47;;;;;;;;;;;18.40;74.20;;;;;;4375679;32;43648;-75
2021/06/22 05:15:18;;;;;;;;;;;18.30;74.20;;;;;;4376071;32;20408;-75
2021/06/22 05:17:46;;;;;;;;;;;18.30;74.40;;;;;;4375941;32;44628;-76
2021/06/22 05:20:16;;;;;;;;;;;18.30;74.40;;;;;;4375064;32;43475;-74
2021/06/22 05:22:43;;;;;;;;;;;18.30;74.40;;;;;;4374954;32;43281;-74
2021/06/22 05:25:10;;;;;;;;;;;18.30;74.50;;;;;;4374643;32;43513;-74
2021/06/22 05:27:40;;;;;;;;;;;18.30;74.60;;;;;;4376944;32;20008;-73
2021/06/22 05:30:07;;;;;;;;;;;18.30;74.90;;;;;;4374317;32;44172;-74
2021/06/22 05:32:37;;;;;;;;;;;18.20;74.90;;;;;;4375719;32;44451;-74
2021/06/22 05:35:05;;;;;;;;;;;18.30;75.00;;;;;;4376117;32;31062;-74
2021/06/22 05:37:32;;;;;;;;;;;18.30;75.00;;;;;;4375915;32;25462;-74
2021/06/22 05:39:59;;;;;;;;;;;18.20;75.00;;;;;;4376267;32;22409;-74
2021/06/22 05:42:29;;;;;;;;;;;18.20;75.10;;;;;;4376186;32;20019;-74
2021/06/22 05:44:56;;;;;;;;;;;18.20;75.00;;;;;;4374889;32;21189;-74
2021/06/22 05:47:23;;;;;;;;;;;18.20;75.00;;;;;;4375777;32;23561;-74
2021/06/22 05:49:51;;;;;;;;;;;18.20;75.10;;;;;;4375398;32;20015;-74
2021/06/22 05:52:18;;;;;;;;;;;18.20;75.10;;;;;;4375197;32;22251;-74
2021/06/22 05:54:48;;;;;;;;;;;18.20;75.20;;;;;;4376109;32;20012;-74
2021/06/22 05:57:15;;;;;;;;;;;18.10;75.10;;;;;;4375259;32;44321;-74
2021/06/22 05:59:42;;;;;;;;;;;18.10;75.30;;;;;;4375464;32;43318;-74
2021/06/22 06:02:12;;;;;;;;;;;18.10;75.30;;;;;;4374677;32;23731;-74
2021/06/22 06:04:39;;;;;;;;;;;18.10;75.30;;;;;;4376508;32;20046;-74
2021/06/22 06:07:06;;;;;;;;;;;18.10;75.50;;;;;;4362212;32;21904;-74
2021/06/22 06:09:33;;;;;;;;;;;18.10;75.50;;;;;;4376196;32;20535;-73
2021/06/22 06:12:01;;;;;;;;;;;18.10;75.50;;;;;;4376358;32;20027;-73
2021/06/22 06:14:28;;;;;;;;;;;18.10;75.50;;;;;;4376054;32;20012;-74
2021/06/22 06:16:55;;;;;;;;;;;18.10;75.70;;;;;;4375299;32;42920;-74
2021/06/22 06:19:23;;;;;;;;;;;18.10;75.70;;;;;;4375637;32;31985;-74
2021/06/22 06:21:50;;;;;;;;;;;18.00;75.60;;;;;;4375305;32;44021;-74
2021/06/22 06:24:18;;;;;;;;;;;18.00;75.60;;;;;;4375290;32;44676;-74
2021/06/22 06:29:32;;;;;;;;;;;18.00;75.70;;;;;;4374161;32;43534;-74
2021/06/22 06:31:59;;;;;;;;;;;18.00;75.80;;;;;;4375742;32;34424;-74
2021/06/22 06:34:32;;;;;;;;;;;18.00;75.80;;;;;;4375373;32;21483;-74
2021/06/22 06:37:01;;;;;;;;;;;18.00;75.90;;;;;;4362423;32;20016;-73
2021/06/22 06:39:33;;;;;;;;;;;18.00;75.90;;;;;;4376374;32;20024;-74
2021/06/22 06:42:01;;;;;;;;;;;17.90;75.90;;;;;;4374995;32;28877;-74
2021/06/22 06:44:28;;;;;;;;;;;18.00;76.00;;;;;;4376025;32;20004;-74
2021/06/22 06:46:58;;;;;;;;;;;17.90;76.00;;;;;;4375897;32;20020;-74
2021/06/22 06:49:25;;;;;;;;;;;17.90;76.00;;;;;;4374355;32;20396;-74
2021/06/22 06:51:53;;;;;;;;;;;17.90;76.00;;;;;;4374415;32;20487;-74
2021/06/22 06:54:20;;;;;;;;;;;17.90;76.00;;;;;;4374962;32;20023;-74
2021/06/22 06:56:50;;;;;;;;;;;17.90;76.10;;;;;;4375598;32;20020;-75
2021/06/22 06:59:22;;;;;;;;;;;17.90;76.30;;;;;;4376229;32;20000;-75
2021/06/22 07:01:52;;;;;;;;;;;17.90;76.50;;;;;;4374151;32;32684;-74
2021/06/22 07:04:19;;;;;;;;;;;17.90;76.40;;;;;;4374701;32;20013;-74
2021/06/22 07:06:47;;;;;;;;;;;17.90;76.40;;;;;;4374149;32;20070;-76
2021/06/22 07:09:14;;;;;;;;;;;17.90;76.50;;;;;;4375690;32;20051;-75
2021/06/22 07:11:42;;;;;;;;;;;17.90;76.70;;;;;;4375426;32;32839;-75
2021/06/22 07:14:13;;;;;;;;;;;17.90;76.80;;;;;;4378544;32;20012;-75
2021/06/22 07:16:45;;;;;;;;;;;17.90;76.70;;;;;;4377215;32;24815;-75
2021/06/22 07:19:12;;;;;;;;;;;17.90;76.80;;;;;;4377123;32;29850;-75
2021/06/22 07:21:41;;;;;;;;;;;17.90;76.90;;;;;;4389478;32;30659;-75
2021/06/22 07:24:11;;;;;;;;;;;17.90;76.90;;;;;;4378602;32;20350;-75
2021/06/22 07:26:38;;;;;;;;;;;17.80;76.80;;;;;;4378262;32;22808;-75
2021/06/22 07:29:06;;;;;;;;;;;17.80;76.90;;;;;;4378487;32;20034;-75
2021/06/22 07:31:36;;;;;;;;;;;17.80;76.90;;;;;;4378131;32;26515;-75
2021/06/22 07:34:03;;;;;;;;;;;17.80;76.90;;;;;;4376965;32;27941;-75
2021/06/22 07:36:33;;;;;;;;;;;17.80;77.00;;;;;;4377813;32;20373;-75
2021/06/22 07:39:00;;;;;;;;;;;17.80;77.00;;;;;;4378358;32;20620;-75
2021/06/22 07:41:27;;;;;;;;;;;17.80;77.20;;;;;;4377054;32;20066;-75
2021/06/22 07:43:55;;;;;;;;;;;17.80;77.20;;;;;;4378085;32;20004;-74
2021/06/22 07:46:31;;;;;;;;;;;17.80;77.20;;;;;;4376608;32;29859;-75
2021/06/22 07:48:58;;;;;;;;;;;17.80;77.40;;;;;;4376746;32;28022;-75
2021/06/22 07:51:28;;;;;;;;;;;17.80;77.30;;;;;;4378416;32;20410;-75
2021/06/22 07:53:59;;;;;;;;;;;17.80;77.40;;;;;;4376932;32;20023;-75
2021/06/22 07:56:29;;;;;;;;;;;17.80;77.50;;;;;;4377497;32;26183;-78
2021/06/22 07:58:58;;;;;;;;;;;17.80;77.60;;;;;;4376945;32;19993;-76
2021/06/22 08:01:27;;;;;;;;;;;17.80;77.60;;;;;;4377332;32;28870;-76
2021/06/22 08:03:54;;;;;;;;;;;17.80;77.60;;;;;;4375608;32;45551;-75
2021/06/22 08:06:27;;;;;;;;;;;17.80;77.60;;;;;;4377884;32;20023;-76
2021/06/22 08:09:01;;;;;;;;;;;17.80;77.80;;;;;;4364793;32;20418;-76
2021/06/22 08:11:28;;;;;;;;;;;17.80;77.80;;;;;;4376113;32;40380;-75
2021/06/22 08:13:55;;;;;;;;;;;17.80;77.80;;;;;;4375452;32;39695;-76
2021/06/22 08:16:25;;;;;;;;;;;17.80;77.80;;;;;;4376615;32;44619;-76
2021/06/22 08:18:52;;;;;;;;;;;17.80;77.80;;;;;;4378237;32;20009;-76
2021/06/22 08:21:19;;;;;;;;;;;17.70;77.80;;;;;;4376913;32;43675;-76
2021/06/22 08:23:49;;;;;;;;;;;17.70;78.00;;;;;;4376064;32;42995;-75
2021/06/22 08:26:16;;;;;;;;;;;17.70;78.10;;;;;;4376719;32;43244;-76
2021/06/22 08:28:43;;;;;;;;;;;17.60;78.20;;;;;;4376648;32;44244;-76
2021/06/22 08:31:13;;;;;;;;;;;17.60;78.20;;;;;;4377700;32;20541;-75
2021/06/22 08:33:47;;;;;;;;;;;17.60;78.30;;;;;;4376445;32;44684;-76
2021/06/22 08:36:19;;;;;;;;;;;17.50;78.30;;;;;;4375725;32;44472;-75
2021/06/22 08:38:49;;;;;;;;;;;17.50;78.50;;;;;;4376849;32;44223;-75
2021/06/22 08:41:17;;;;;;;;;;;17.40;78.60;;;;;;4375336;32;45087;-75
2021/06/22 08:43:46;;;;;;;;;;;17.40;78.80;;;;;;4376049;32;44252;-76
2021/06/22 08:46:18;;;;;;;;;;;17.30;78.90;;;;;;4376696;32;43350;-75
2021/06/22 08:48:53;;;;;;;;;;;17.30;79.00;;;;;;4376683;32;44432;-76
2021/06/22 08:51:44;;;;;;;;;;;17.30;79.10;;;;;;4376653;32;40427;-75
2021/06/22 08:54:19;;;;;;;;;;;17.30;79.20;;;;;;4376704;32;20013;-75
2021/06/22 08:56:58;;;;;;;;;;;17.30;79.20;;;;;;4376313;32;20007;-75
2021/06/22 08:59:30;;;;;;;;;;;17.30;79.20;;;;;;4362880;32;33180;-76
2021/06/22 09:02:04;;;;;;;;;;;17.40;79.20;;;;;;4375049;32;44073;-75
2021/06/22 09:04:40;;;;;;;;;;;17.40;79.20;;;;;;4376477;32;41021;-75
2021/06/22 09:07:12;;;;;;;;;;;17.40;79.20;;;;;;4375155;32;43630;-76
2021/06/22 09:09:53;;;;;;;;;;;17.50;79.20;;;;;;4375333;32;41287;-76
2021/06/22 09:12:31;;;;;;;;;;;17.40;79.10;;;;;;4376188;32;19992;-75
2021/06/22 09:15:20;;;;;;;;;;;17.40;79.10;;;;;;4377648;32;20009;-76
2021/06/22 09:17:56;;;;;;;;;;;17.50;79.20;;;;;;4377125;32;20436;-76
2021/06/22 09:20:38;;;;;;;;;;;17.50;79.20;;;;;;4376343;32;37471;-76
2021/06/22 09:23:18;;;;;;;;;;;17.50;79.10;;;;;;4375697;32;20050;-76
2021/06/22 09:25:46;;;;;;;;;;;17.50;79.10;;;;;;4375292;32;44324;-76
2021/06/22 09:28:15;;;;;;;;;;;17.50;79.10;;;;;;4375439;32;44056;-75
2021/06/22 09:30:44;;;;;;;;;;;17.50;79.00;;;;;;4374715;32;44615;-75
2021/06/22 09:33:11;;;;;;;;;;;17.60;79.10;;;;;;4375333;32;43200;-75
2021/06/22 09:35:38;;;;;;;;;;;17.60;79.10;;;;;;4375973;32;30144;-75
2021/06/22 09:38:05;;;;;;;;;;;17.60;79.20;;;;;;4376238;32;20020;-75
2021/06/22 09:40:33;;;;;;;;;;;17.60;79.10;;;;;;4374935;32;26752;-73
2021/06/22 09:43:02;;;;;;;;;;;17.60;79.20;;;;;;4375875;32;20038;-75
2021/06/22 09:45:32;;;;;;;;;;;17.60;79.20;;;;;;4375089;32;25110;-75
2021/06/22 09:48:01;;;;;;;;;;;17.60;79.20;;;;;;4376851;32;20022;-75
2021/06/22 09:50:54;;;;;;;;;;;17.60;79.30;;;;;;4376422;32;20126;-75
2021/06/22 09:53:33;;;;;;;;;;;17.60;79.30;;;;;;4376182;32;29689;-74
2021/06/22 09:56:01;;;;;;;;;;;17.60;79.40;;;;;;4375467;32;30076;-75
2021/06/22 09:58:35;;;;;;;;;;;17.60;79.50;;;;;;4363013;32;20054;-74
2021/06/22 10:01:03;;;;;;;;;;;17.60;79.50;;;;;;4376240;32;25993;-75
2021/06/22 10:03:37;;;;;;;;;;;17.60;79.50;;;;;;4375541;32;26481;-75
2021/06/22 10:06:09;;;;;;;;;;;17.60;79.50;;;;;;4376708;32;20380;-74
2021/06/22 10:08:49;;;;;;;;;;;17.60;79.40;;;;;;4376359;32;20004;-75
2021/06/22 10:11:35;;;;;;;;;;;17.60;79.50;;;;;;4375447;32;43663;-74
2021/06/22 10:14:08;;;;;;;;;;;17.60;79.60;;;;;;4375688;32;20042;-76
2021/06/22 10:16:35;;;;;;;;;;;17.70;79.60;;;;;;4376032;32;26405;-76
2021/06/22 10:19:04;;;;;;;;;;;17.60;79.50;;;;;;4376062;32;20102;-76
2021/06/22 10:21:33;;;;;;;;;;;17.60;79.60;;;;;;4375381;32;23621;-77
2021/06/22 10:24:03;;;;;;;;;;;17.60;79.60;;;;;;4376116;32;26418;-76
2021/06/22 10:26:30;;;;;;;;;;;17.60;79.60;;;;;;4375521;32;24984;-76
2021/06/22 10:29:01;;;;;;;;;;;17.70;79.70;;;;;;4375360;32;44281;-76
2021/06/22 10:31:30;;;;;;;;;;;17.60;79.60;;;;;;4376366;32;20012;-76
2021/06/22 10:33:57;;;;;;;;;;;17.60;79.70;;;;;;4375949;32;20019;-75
2021/06/22 10:36:27;;;;;;;;;;;17.60;79.70;;;;;;4375277;32;27571;-75
2021/06/22 10:38:55;;;;;;;;;;;17.60;79.80;;;;;;4374600;32;42747;-74
2021/06/22 10:41:25;;;;;;;;;;;17.60;79.80;;;;;;4375650;32;26501;-74
2021/06/22 10:43:58;;;;;;;;;;;17.70;79.90;;;;;;4374487;32;31200;-74
2021/06/22 10:46:25;;;;;;;;;;;17.60;79.90;;;;;;4376774;32;29878;-75
2021/06/22 10:48:53;;;;;;;;;;;17.60;80.00;;;;;;4378150;32;42535;-75
2021/06/22 10:51:32;;;;;;;;;;;17.70;80.10;;;;;;4377719;32;43344;-75
2021/06/22 10:54:04;;;;;;;;;;;17.60;80.10;;;;;;4378688;32;20029;-74
2021/06/22 10:56:32;;;;;;;;;;;17.70;80.20;;;;;;4377658;32;25750;-74
2021/06/22 10:59:11;;;;;;;;;;;17.60;80.10;;;;;;4378527;32;20024;-74
2021/06/22 11:02:00;;;;;;;;;;;17.60;80.10;;;;;;4377313;32;22707;-74
2021/06/22 11:04:30;;;;;;;;;;;17.70;80.30;;;;;;4379488;32;20020;-74
2021/06/22 11:07:06;;;;;;;;;;;17.60;80.20;;;;;;4378294;32;32433;-74
2021/06/22 11:09:40;;;;;;;;;;;17.70;80.40;;;;;;4376710;32;31275;-74
2021/06/22 11:12:19;;;;;;;;;;;17.70;80.50;;;;;;4378495;32;32917;-74
2021/06/22 11:15:01;;;;;;;;;;;17.70;80.50;;;;;;4378689;32;20008;-75
2021/06/22 11:17:40;;;;;;;;;;;17.60;80.40;;;;;;4378418;32;22608;-74
2021/06/22 11:20:16;;;;;;;;;;;17.60;80.40;;;;;;4379019;32;20004;-74
2021/06/22 11:23:00;;;;;;;;;;;17.70;80.50;;;;;;4376843;32;34095;-74
2021/06/22 11:25:48;;;;;;;;;;;17.60;80.40;;;;;;4378498;32;21626;-73
2021/06/22 11:28:24;;;;;;;;;;;17.70;80.50;;;;;;4378198;32;29135;-74
2021/06/22 11:30:55;;;;;;;;;;;17.60;80.40;;;;;;4377151;32;35050;-74
2021/06/22 11:33:29;;;;;;;;;;;17.70;80.50;;;;;;4377335;32;20042;-74
2021/06/22 11:36:14;;;;;;;;;;;17.70;80.50;;;;;;4378037;32;31349;-74
2021/06/22 11:39:06;;;;;;;;;;;17.70;80.50;;;;;;4378217;32;28896;-75
2021/06/22 11:41:34;;;;;;;;;;;17.70;80.50;;;;;;4377412;32;20149;-74
2021/06/22 11:44:08;;;;;;;;;;;17.70;80.60;;;;;;4365181;32;20066;-75
2021/06/22 11:46:36;;;;;;;;;;;17.70;80.70;;;;;;4377046;32;23600;-74
2021/06/22 11:49:06;;;;;;;;;;;17.70;81.40;;;;;;4377876;32;28528;-75
2021/06/22 11:51:52;;;;;;;;;;;17.70;80.70;;;;;;4376413;32;23038;-75
2021/06/22 11:54:42;;;;;;;;;;;17.70;80.70;;;;;;4377035;32;26592;-75
2021/06/22 11:57:15;;;;;;;;;;;17.70;80.70;;;;;;4378036;32;20012;-75
2021/06/22 11:59:43;;;;;;;;;;;17.70;80.70;;;;;;4377262;32;42734;-76
2021/06/22 12:02:10;;;;;;;;;;;17.70;80.70;;;;;;4376818;32;43344;-75
2021/06/22 12:04:37;;;;;;;;;;;17.70;80.70;;;;;;4375576;32;44907;-75
2021/06/22 12:07:05;;;;;;;;;;;17.70;80.70;;;;;;4378321;32;20015;-75
2021/06/22 12:09:34;;;;;;;;;;;17.70;80.70;;;;;;4375493;32;43371;-75
2021/06/22 12:12:02;;;;;;;;;;;17.70;80.70;;;;;;4378353;32;20008;-75
2021/06/22 12:14:31;;;;;;;;;;;17.70;80.80;;;;;;4376998;32;43381;-75
2021/06/22 12:16:58;;;;;;;;;;;17.70;80.70;;;;;;4376550;32;42320;-75
2021/06/22 12:19:27;;;;;;;;;;;17.70;80.80;;;;;;4375372;32;44012;-75
2021/06/22 12:21:57;;;;;;;;;;;17.70;80.80;;;;;;4376689;32;43576;-75
2021/06/22 12:24:24;;;;;;;;;;;17.70;80.90;;;;;;4377630;32;20456;-75
2021/06/22 12:26:53;;;;;;;;;;;17.70;80.80;;;;;;4376879;32;42933;-75
2021/06/22 12:29:23;;;;;;;;;;;17.80;80.90;;;;;;4377640;32;20418;-75
2021/06/22 12:31:53;;;;;;;;;;;17.80;80.90;;;;;;4377835;32;20027;-75
2021/06/22 12:34:23;;;;;;;;;;;17.80;80.90;;;;;;4376988;32;20054;-75
2021/06/22 12:36:52;;;;;;;;;;;17.80;80.80;;;;;;4376829;32;24319;-75
2021/06/22 12:39:21;;;;;;;;;;;17.80;80.80;;;;;;4377204;32;25344;-75
2021/06/22 12:41:50;;;;;;;;;;;17.80;80.80;;;;;;4377866;32;20008;-76
2021/06/22 12:44:27;;;;;;;;;;;17.80;80.80;;;;;;4375833;32;20546;-75
2021/06/22 12:46:54;;;;;;;;;;;17.80;80.80;;;;;;4377188;32;26310;-75
2021/06/22 12:49:31;;;;;;;;;;;17.80;80.80;;;;;;4375962;32;20388;-75
2021/06/22 12:51:59;;;;;;;;;;;17.80;80.80;;;;;;4376286;32;19996;-75
2021/06/22 12:54:27;;;;;;;;;;;17.80;80.70;;;;;;4363640;32;28813;-74
2021/06/22 12:56:57;;;;;;;;;;;17.80;80.70;;;;;;4377088;32;20105;-75
2021/06/22 12:59:28;;;;;;;;;;;17.80;80.70;;;;;;4375997;32;20063;-74
2021/06/22 13:02:06;;;;;;;;;;;17.70;80.70;;;;;;4376769;32;25777;-75
2021/06/22 13:04:41;;;;;;;;;;;17.80;80.70;;;;;;4375802;32;29363;-76
2021/06/22 13:07:09;;;;;;;;;;;17.80;80.70;;;;;;4376759;32;29363;-75
2021/06/22 13:09:40;;;;;;;;;;;17.80;80.70;;;;;;4376285;32;29258;-75
2021/06/22 13:12:15;;;;;;;;;;;17.80;80.70;;;;;;4376533;32;20425;-75
2021/06/22 13:14:45;;;;;;;;;;;17.80;80.80;;;;;;4376005;32;19992;-74
2021/06/22 13:17:18;;;;;;;;;;;17.80;80.80;;;;;;4375026;32;45013;-74
2021/06/22 13:19:47;;;;;;;;;;;17.80;80.80;;;;;;4375815;32;23414;-74
2021/06/22 13:22:19;;;;;;;;;;;17.80;80.80;;;;;;4377099;32;20072;-74
2021/06/22 13:24:49;;;;;;;;;;;17.80;80.90;;;;;;4375203;32;24881;-74
2021/06/22 13:27:29;;;;;;;;;;;17.80;80.80;;;;;;4376662;32;20058;-76
2021/06/22 13:29:57;;;;;;;;;;;17.70;80.70;;;;;;4377008;32;20009;-76
2021/06/22 13:32:31;;;;;;;;;;;17.80;80.80;;;;;;4375049;32;25653;-74
2021/06/22 13:35:01;;;;;;;;;;;17.80;80.80;;;;;;4375791;32;20059;-74
2021/06/22 13:37:29;;;;;;;;;;;17.80;80.80;;;;;;4376615;32;20262;-74
2021/06/22 13:39:59;;;;;;;;;;;17.80;80.80;;;;;;4363065;32;19997;-75
2021/06/22 13:42:29;;;;;;;;;;;17.80;80.80;;;;;;4376819;32;20340;-75
2021/06/22 13:45:07;;;;;;;;;;;17.80;80.80;;;;;;4374368;32;37749;-74
2021/06/22 13:47:40;;;;;;;;;;;17.80;80.80;;;;;;4374733;32;30876;-75
2021/06/22 13:50:15;;;;;;;;;;;17.80;80.80;;;;;;4375834;32;20019;-74
2021/06/22 13:52:52;;;;;;;;;;;17.80;80.90;;;;;;4376201;32;27310;-75
2021/06/22 13:55:36;;;;;;;;;;;17.80;81.60;;;;;;4374091;32;43886;-75
2021/06/22 13:58:05;;;;;;;;;;;17.80;80.80;;;;;;4375703;32;44250;-75
2021/06/22 14:00:35;;;;;;;;;;;17.80;80.90;;;;;;4376753;32;20016;-75
2021/06/22 14:03:04;;;;;;;;;;;17.80;80.90;;;;;;4375984;32;20008;-75
2021/06/22 14:05:32;;;;;;;;;;;17.80;80.90;;;;;;4375827;32;33661;-75
2021/06/22 14:08:03;;;;;;;;;;;17.80;80.90;;;;;;4374834;32;42995;-75
2021/06/22 14:10:31;;;;;;;;;;;17.80;80.90;;;;;;4374687;32;27510;-76
2021/06/22 14:13:04;;;;;;;;;;;17.80;80.80;;;;;;4374898;32;42511;-75
2021/06/22 14:15:32;;;;;;;;;;;17.80;80.90;;;;;;4373831;32;44835;-75
2021/06/22 14:18:01;;;;;;;;;;;17.80;80.90;;;;;;4375791;32;20413;-76
2021/06/22 14:20:29;;;;;;;;;;;17.80;81.00;;;;;;4374903;32;44364;-75
2021/06/22 14:23:02;;;;;;;;;;;17.70;80.90;;;;;;4374762;32;22323;-75
2021/06/22 14:25:29;;;;;;;;;;;17.80;81.00;;;;;;4374140;32;44995;-75
2021/06/22 14:27:59;;;;;;;;;;;17.80;81.00;;;;;;4375266;32;44054;-75
2021/06/22 14:30:26;;;;;;;;;;;17.80;81.00;;;;;;4374097;32;43229;-75
2021/06/22 14:32:54;;;;;;;;;;;17.80;81.10;;;;;;4374850;32;41954;-75
2021/06/22 14:35:22;;;;;;;;;;;17.80;81.10;;;;;;4374681;32;43679;-75